Youngsville, NM

9:25 PM MDT on September 01, 2014 (GMT -0600)
Las Silvestres | Change Station
CLOSE
Current Station
Personal Weather Station
Location: Abiquiu, NM
Elevation: 6010 ft
Nearby Weather Stations

Elev 6010 ft 36.21 °N, 106.35 °W | Updated 1 minute ago

Clear
Clear
77.5 °F
Feels Like 77 °F
N
2.0
Wind Variable Wind from NW
Gusts 7.0 mph

Today
High -- | Low -- °F
--% Chance of Precip.
Yesterday
High -- | Low -- °F
Precip. -- in
6:37 AM 7:33 PM
Waxing Crescent, 47% visible
Pressure 30.22 in
Visibility 10.0 miles
Clouds Clear
Heat Index 77 °F
Dew Point 38 °F
Humidity 24%
Rainfall 0.00 in
Snow Depth Not available.
UV 0 out of 12
Pollen 8.90 out of 12
Air Quality Not available.
Flu Activity Not available.
METAR KLAM 020315Z AUTO 31006KT 10SM CLR 24/M03 A3022 RMK AO2 T02361026

More Conditions Fewer Conditions

Pressure 30.22 in
Visibility 10.0 miles
Clouds Clear
Heat Index 77 °F
Dew Point 38 °F
Humidity 24%
Rainfall 0.00 in
Snow Depth Not available.
UV 0 out of 12
Pollen 8.90 out of 12
Air Quality Not available.
Flu Activity Not available.
METAR KLAM 020315Z AUTO 31006KT 10SM CLR 24/M03 A3022 RMK AO2 T02361026

More Conditions Fewer Conditions

10-Day Weather Forecast

Almanac

Astronomy

Sep. 01, 2014 Rise Set
Actual Time 6:37 AM MDT 7:33 PM MDT
Civil Twilight 6:11 AM MDT 8:00 PM MDT
Nautical Twilight 5:40 AM MDT 8:31 PM MDT
Astronomical Twilight 5:08 AM MDT 9:03 PM MDT
Moon 1:14 PM MDT (9/1) 11:49 PM MDT (9/1)
Length of Visible Light 13h 48m
Length of Day
12h 56m
Tomorrow will be 2m 12s shorter.
Waxing Crescent, 47% of the Moon is Illuminated
Today
Waxing Crescent
Sep 2
First Quarter
Sep 8
Full
Sep 15
Last Quarter
Sep 24
New

Today's Extremes

State Highs State Lows

Community

WunderPhotos

Upload Photos

1,749,546 photos uploaded!

WunderBlogs® & News

Nearby

Snow Depth

Station Depth Elevation
Quemazon 1 in 9500 ft
Bateman 0 in 9300 ft
Hopewell 0 in 10000 ft
Santa Fe 1 in 11445 ft
Chamita 0 in 8400 ft

Earthquake Activity

City Distance Mag. Time & Date
Trinidad, Colorado 108 miles 2.7 4:20 AM MDT
2014-08-31
Minimum magnitude displayed is 2.5.

Coastal Water Temperatures

Place Temperature
No Stations Reporting

Nearby Weather Stations